Rockenbach Airport

Jump to: basic info | weather | runways | comments

Related pages: nearby airports | nearby navaids | notams | map

Basic information (top)

Codes: LL97
Location: lon 42.338902, lat -88.084801, elev 800 ft / 244 m msl
Status: small_airport

Weather (top)

Current conditions for Waukegan Regional Airport 11nm (20km) ENE (rec'd 2015/03/06 14:55Z):

KUGN 061455Z 19013KT 10SM CLR M11/M17 A3036 RMK AO2 SLP309 T11061167 58014

Airport forecast for Kenosha Regional Airport 17nm (31km) NNE (rec'd 2015/03/06 06:30Z):

TAF KENW 060529Z 0606/0706 23006KT P6SM SKC 
     FM061300 22011KT P6SM SCT200 
     FM061800 21016G25KT P6SM BKN250 
     FM070000 23011KT P6SM BKN100

Runways (top)

N/S: 2,000 x 100 ft (610 x 30 m) — grass — not lighted

Latest comments (top)

No comments yet for Rockenbach Airport

More... (top)

See also NOTAMs and nearby airports and navaids, or visit the Rockenbach Airport page at the main OurAirports website..